createdAt,value
2023-05-21T00:00:38.996Z,309.98
2023-05-21T00:01:42.296Z,274.14
2023-05-21T00:02:45.584Z,258.78
2023-05-21T00:03:48.867Z,235.74
2023-05-21T00:04:52.183Z,240.86
2023-05-21T00:05:55.760Z,292.06
2023-05-21T00:06:59.032Z,-271.14
2023-05-21T00:08:02.337Z,-281.38
2023-05-21T00:09:05.630Z,-294.18
2023-05-21T00:10:08.931Z,-304.42
2023-05-21T00:11:12.199Z,-304.42
2023-05-21T00:12:14.504Z,233.18
2023-05-21T00:13:17.810Z,194.78
2023-05-21T00:14:21.087Z,202.46
2023-05-21T00:15:24.379Z,258.78
2023-05-21T00:16:27.676Z,240.86
2023-05-21T00:17:30.973Z,210.14
2023-05-21T00:18:34.264Z,202.46
2023-05-21T00:19:37.558Z,215.26
2023-05-21T00:20:40.848Z,171.74
2023-05-21T00:21:44.143Z,217.82
2023-05-21T00:22:47.446Z,189.66
2023-05-21T00:23:50.738Z,-299.3
2023-05-21T00:24:54.015Z,-225.06
2023-05-21T00:25:56.326Z,28.39
2023-05-21T00:26:59.618Z,-15.14
2023-05-21T00:28:02.909Z,-30.5
2023-05-21T00:29:06.199Z,33.51
2023-05-21T00:30:09.485Z,59.11
2023-05-21T00:31:12.818Z,56.55
2023-05-21T00:32:16.082Z,64.23
2023-05-21T00:33:19.359Z,-27.94
2023-05-21T00:34:22.665Z,-4.9
2023-05-21T00:35:25.937Z,-25.38
2023-05-21T00:36:29.239Z,-43.3
2023-05-21T00:37:32.537Z,0
2023-05-21T00:38:35.835Z,-63.78
2023-05-21T00:39:38.152Z,-89.38
2023-05-21T00:40:41.437Z,-56.1
2023-05-21T00:41:44.721Z,-107.3
2023-05-21T00:42:48.008Z,-66.34
2023-05-21T00:43:51.306Z,-158.5
2023-05-21T00:44:54.603Z,0
2023-05-21T00:45:57.903Z,-217.38
2023-05-21T00:47:01.196Z,-196.9
2023-05-21T00:48:04.480Z,-178.98
2023-05-21T00:49:07.772Z,-225.06
2023-05-21T00:50:11.059Z,-232.74
2023-05-21T00:51:14.336Z,-225.06
2023-05-21T00:52:17.660Z,-304.42
2023-05-21T00:53:19.963Z,-314.66
2023-05-21T00:54:23.232Z,-237.86
2023-05-21T00:55:26.537Z,-255.78
2023-05-21T00:56:29.832Z,-304.42
2023-05-21T00:57:33.129Z,-250.66
2023-05-21T00:58:36.414Z,-161.06
2023-05-21T00:59:39.696Z,-260.9
2023-05-21T01:00:42.994Z,-250.66
2023-05-21T01:01:46.284Z,-158.5
2023-05-21T01:02:49.601Z,-132.9
2023-05-21T01:03:53.109Z,-166.18
2023-05-21T01:04:56.401Z,-168.74
2023-05-21T01:05:59.700Z,-245.54
2023-05-21T01:07:02.014Z,-122.66
2023-05-21T01:08:05.316Z,-84.26
2023-05-21T01:09:08.584Z,-86.82
2023-05-21T01:10:11.900Z,-112.42
2023-05-21T01:11:15.180Z,-148.26
2023-05-21T01:12:18.459Z,-202.02
2023-05-21T01:13:21.768Z,-250.66
2023-05-21T01:14:25.060Z,-217.38
2023-05-21T01:15:28.332Z,-158.5
2023-05-21T01:16:31.638Z,-150.82
2023-05-21T01:17:34.937Z,-186.66
2023-05-21T01:18:38.226Z,-176.42
2023-05-21T01:19:41.514Z,-125.22
2023-05-21T01:20:43.815Z,-178.98
2023-05-21T01:21:47.106Z,-176.42
2023-05-21T01:22:50.412Z,-158.5
2023-05-21T01:23:53.684Z,-161.06
2023-05-21T01:24:56.971Z,-161.06
2023-05-21T01:26:00.289Z,-125.22
2023-05-21T01:27:03.561Z,-135.46
2023-05-21T01:28:06.850Z,-168.74
2023-05-21T01:29:10.147Z,-173.86
2023-05-21T01:30:13.443Z,-114.98
2023-05-21T01:31:16.735Z,-125.22
2023-05-21T01:32:20.016Z,-163.62
2023-05-21T01:33:23.329Z,-86.82
2023-05-21T01:34:25.636Z,-112.42
2023-05-21T01:35:28.922Z,-7.46
2023-05-21T01:36:32.215Z,-17.7
2023-05-21T01:37:35.513Z,-38.18
2023-05-21T01:38:38.800Z,-38.18
2023-05-21T01:39:42.083Z,-79.14
2023-05-21T01:40:45.374Z,-140.58
2023-05-21T01:41:48.671Z,-102.18
2023-05-21T01:43:55.251Z,-63.78
2023-05-21T01:44:58.537Z,-48.42
2023-05-21T01:46:01.825Z,-45.86
2023-05-21T01:47:05.156Z,-91.94
2023-05-21T01:48:07.440Z,-63.78
2023-05-21T01:49:10.742Z,-122.66
2023-05-21T01:50:14.017Z,-132.9
2023-05-21T01:51:17.313Z,-84.26
2023-05-21T01:52:20.601Z,-84.26
2023-05-21T01:53:23.900Z,-79.14
2023-05-21T01:54:26.226Z,-2.34
2023-05-21T01:55:29.500Z,-66.34
2023-05-21T01:56:32.807Z,-40.74
2023-05-21T01:57:36.082Z,-127.78
2023-05-21T01:58:39.396Z,-81.7
2023-05-21T01:59:42.670Z,-91.94
2023-05-21T02:00:45.968Z,-86.82
2023-05-21T02:01:49.256Z,-143.14
2023-05-21T02:02:52.575Z,-91.94
2023-05-21T02:03:55.836Z,-138.02
2023-05-21T02:04:59.539Z,-71.46
2023-05-21T02:06:02.838Z,-43.3
2023-05-21T02:07:06.120Z,-4.9
2023-05-21T02:08:08.437Z,-53.54
2023-05-21T02:09:11.716Z,-120.1
2023-05-21T02:10:15.017Z,-114.98
2023-05-21T02:11:18.314Z,-161.06
2023-05-21T02:12:21.598Z,-138.02
2023-05-21T02:13:24.886Z,-196.9
2023-05-21T02:14:28.185Z,-171.3
2023-05-21T02:15:31.474Z,-66.34
2023-05-21T02:16:34.777Z,-53.54
2023-05-21T02:17:38.063Z,-61.22
2023-05-21T02:18:41.357Z,5.35
2023-05-21T02:19:44.645Z,38.63
2023-05-21T02:20:47.938Z,23.27
2023-05-21T02:21:50.252Z,92.39
2023-05-21T02:22:53.592Z,61.67
2023-05-21T02:23:56.888Z,-189.22
2023-05-21T02:25:00.194Z,-158.5
2023-05-21T02:26:03.470Z,-114.98
2023-05-21T02:27:06.761Z,-79.14
2023-05-21T02:28:10.064Z,-71.46
2023-05-21T02:29:13.355Z,-127.78
2023-05-21T02:30:16.662Z,-102.18
2023-05-21T02:31:19.935Z,-58.66
2023-05-21T02:32:23.222Z,-150.82
2023-05-21T02:33:26.510Z,-114.98
2023-05-21T02:34:29.816Z,-97.06
2023-05-21T02:35:32.126Z,-74.02
2023-05-21T02:36:35.423Z,-89.38
2023-05-21T02:37:38.706Z,-91.94
2023-05-21T02:38:42.001Z,-104.74
2023-05-21T02:39:45.289Z,-132.9
2023-05-21T02:40:48.568Z,-155.94
2023-05-21T02:41:51.864Z,-122.66
2023-05-21T02:42:55.147Z,-81.7
2023-05-21T02:43:58.452Z,-94.5
2023-05-21T02:45:01.739Z,-114.98
2023-05-21T02:46:05.039Z,-114.98
2023-05-21T02:47:08.319Z,-56.1
2023-05-21T02:48:11.603Z,-53.54
2023-05-21T02:49:13.913Z,-94.5
2023-05-21T02:50:17.212Z,-79.14
2023-05-21T02:51:20.517Z,-30.5
2023-05-21T02:52:23.789Z,-27.94
2023-05-21T02:53:27.111Z,-2.34
2023-05-21T02:54:30.381Z,0
2023-05-21T02:55:33.665Z,5.35
2023-05-21T02:56:36.978Z,-7.46
2023-05-21T02:57:40.259Z,-50.98
2023-05-21T02:58:43.564Z,-33.06
2023-05-21T02:59:46.847Z,33.51
2023-05-21T03:00:50.131Z,25.83
2023-05-21T03:01:53.875Z,-7.46
2023-05-21T03:02:56.180Z,-25.38
2023-05-21T03:03:59.873Z,2.79
2023-05-21T03:05:03.174Z,-38.18
2023-05-21T03:06:06.455Z,-53.54
2023-05-21T03:07:09.761Z,-71.46
2023-05-21T03:08:13.056Z,-112.42
2023-05-21T03:09:16.346Z,-132.9
2023-05-21T03:10:19.644Z,-76.58
2023-05-21T03:11:22.908Z,-94.5
2023-05-21T03:12:26.216Z,-89.38
2023-05-21T03:13:29.511Z,-97.06
2023-05-21T03:14:32.797Z,-127.78
2023-05-21T03:15:36.110Z,-145.7
2023-05-21T03:16:38.402Z,-117.54
2023-05-21T03:17:41.679Z,-99.62
2023-05-21T03:18:44.981Z,-130.34
2023-05-21T03:19:48.265Z,-189.22
2023-05-21T03:20:51.562Z,-117.54
2023-05-21T03:21:54.863Z,-84.26
2023-05-21T03:22:58.157Z,-117.54
2023-05-21T03:24:01.452Z,-189.22
2023-05-21T03:25:04.727Z,-102.18
2023-05-21T03:26:08.021Z,-71.46
2023-05-21T03:27:11.322Z,-15.14
2023-05-21T03:28:14.619Z,-61.22
2023-05-21T03:29:17.890Z,56.55
2023-05-21T03:30:20.216Z,-35.62
2023-05-21T03:31:23.485Z,77.03
2023-05-21T03:32:26.807Z,46.31
2023-05-21T03:33:30.100Z,92.39
2023-05-21T03:34:33.379Z,117.99
2023-05-21T03:35:36.674Z,112.87
2023-05-21T03:36:39.964Z,120.55
2023-05-21T03:37:43.246Z,125.67
2023-05-21T03:38:46.536Z,158.95
2023-05-21T03:39:49.845Z,59.11
2023-05-21T03:40:53.117Z,166.63
2023-05-21T03:41:56.436Z,100.07
2023-05-21T03:43:00.136Z,115.43
2023-05-21T03:44:02.421Z,112.87
2023-05-21T03:45:05.741Z,115.43
2023-05-21T03:46:09.019Z,30.95
2023-05-21T03:47:12.316Z,53.99
2023-05-21T03:48:15.605Z,97.51
2023-05-21T03:49:18.913Z,28.39
2023-05-21T03:50:22.191Z,7.91
2023-05-21T03:51:25.489Z,10.47
2023-05-21T03:52:28.775Z,-7.46
2023-05-21T03:53:32.069Z,30.95
2023-05-21T03:54:35.379Z,56.55
2023-05-21T03:55:38.651Z,48.87
2023-05-21T03:56:41.955Z,53.99
2023-05-21T03:57:44.252Z,-184.22
2023-05-21T03:58:47.547Z,0
2023-05-21T03:59:50.826Z,7.91
2023-05-21T04:00:54.268Z,7.91
2023-05-21T04:01:57.564Z,-91.94
2023-05-21T04:03:00.847Z,13.03
2023-05-21T04:04:04.152Z,-27.94
2023-05-21T04:05:07.456Z,61.67
2023-05-21T04:06:10.741Z,20.71
2023-05-21T04:07:14.017Z,-35.62
2023-05-21T04:08:17.339Z,-38.18
2023-05-21T04:09:20.615Z,107.75
2023-05-21T04:10:23.894Z,84.71
2023-05-21T04:11:26.228Z,84.71
2023-05-21T04:12:29.497Z,94.95
2023-05-21T04:13:32.778Z,-7.46
2023-05-21T04:14:36.083Z,105.19
2023-05-21T04:15:39.382Z,25.83
2023-05-21T04:16:42.664Z,92.39
2023-05-21T04:17:45.950Z,181.99
2023-05-21T04:18:49.241Z,87.27
2023-05-21T04:19:52.547Z,130.79
2023-05-21T04:20:55.833Z,112.87
2023-05-21T04:21:59.115Z,156.39
2023-05-21T04:23:02.447Z,56.55
2023-05-21T04:24:05.712Z,10.47
2023-05-21T04:25:08.011Z,-17.7
2023-05-21T04:26:11.300Z,53.99
2023-05-21T04:27:14.596Z,0.23
2023-05-21T04:28:17.885Z,15.59
2023-05-21T04:29:21.200Z,43.75
2023-05-21T04:31:27.785Z,0.23
2023-05-21T04:32:31.055Z,-20.26
2023-05-21T04:33:34.348Z,-20.26
2023-05-21T04:34:37.642Z,51.43
2023-05-21T04:35:40.943Z,36.07
2023-05-21T04:36:44.220Z,20.71
2023-05-21T04:37:47.512Z,-50.98
2023-05-21T04:38:49.816Z,-56.1
2023-05-21T04:39:53.116Z,-15.14
2023-05-21T04:40:56.409Z,33.51
2023-05-21T04:41:59.713Z,30.95
2023-05-21T04:43:03.009Z,-27.94
2023-05-21T04:44:06.286Z,-91.94
2023-05-21T04:45:09.565Z,-50.98
2023-05-21T04:46:12.863Z,-27.94
2023-05-21T04:47:16.168Z,23.27
2023-05-21T04:48:19.456Z,-38.18
2023-05-21T04:49:22.720Z,77.03
2023-05-21T04:50:26.040Z,-12.58
2023-05-21T04:51:29.328Z,38.63
2023-05-21T04:52:31.631Z,112.87
2023-05-21T04:53:34.946Z,87.27
2023-05-21T04:54:38.221Z,141.03
2023-05-21T04:55:41.508Z,153.83
2023-05-21T04:56:44.814Z,94.95
2023-05-21T04:57:48.094Z,64.23
2023-05-21T04:58:51.384Z,110.31
2023-05-21T04:59:54.678Z,48.87
2023-05-21T05:00:57.965Z,87.27
2023-05-21T05:02:01.266Z,84.71
2023-05-21T05:03:04.559Z,48.87
2023-05-21T05:04:07.872Z,30.95
2023-05-21T05:05:11.127Z,0
2023-05-21T05:06:13.442Z,43.75
2023-05-21T05:07:16.755Z,0
2023-05-21T05:08:20.039Z,7.91
2023-05-21T05:09:23.319Z,-38.18
2023-05-21T05:10:26.618Z,-22.82
2023-05-21T05:11:29.920Z,-20.26
2023-05-21T05:12:33.200Z,-7.46
2023-05-21T05:13:36.492Z,-10.02
2023-05-21T05:14:39.781Z,-20.26
2023-05-21T05:15:43.074Z,-17.7
2023-05-21T05:16:46.366Z,-53.54
2023-05-21T05:17:49.688Z,-58.66
2023-05-21T05:18:52.967Z,-56.1
2023-05-21T05:19:55.269Z,-27.94
2023-05-21T05:20:58.562Z,-20.26
2023-05-21T05:22:01.859Z,-12.58
2023-05-21T05:23:05.143Z,-40.74
2023-05-21T05:24:08.428Z,-35.62
2023-05-21T05:25:11.726Z,-10.02
2023-05-21T05:26:14.035Z,-17.7
2023-05-21T05:27:17.341Z,-74.02
2023-05-21T05:28:20.623Z,-63.78
2023-05-21T05:29:23.920Z,66.79
2023-05-21T05:30:27.200Z,46.31
2023-05-21T05:31:30.513Z,28.39
2023-05-21T05:32:33.818Z,-15.14
2023-05-21T05:33:37.089Z,-7.46
2023-05-21T05:34:40.389Z,10.47
2023-05-21T05:35:43.658Z,13.03
2023-05-21T05:36:46.974Z,5.35
2023-05-21T05:37:50.257Z,100.07
2023-05-21T05:38:53.566Z,66.79
2023-05-21T05:39:55.844Z,48.87
2023-05-21T05:40:59.162Z,169.19
2023-05-21T05:42:02.440Z,164.07
2023-05-21T05:43:05.712Z,156.39
2023-05-21T05:44:09.029Z,169.19
2023-05-21T05:45:12.322Z,125.67
2023-05-21T05:46:15.590Z,-86.82
2023-05-21T05:47:18.889Z,-112.42
2023-05-21T05:48:22.200Z,-117.54
2023-05-21T05:49:25.527Z,-127.78
2023-05-21T05:50:28.771Z,-145.7
2023-05-21T05:51:32.066Z,-184.1
2023-05-21T05:52:35.360Z,-127.78
2023-05-21T05:53:37.655Z,-102.18
2023-05-21T05:54:40.952Z,-81.7
2023-05-21T05:55:44.249Z,-109.86
2023-05-21T05:56:47.550Z,-71.46
2023-05-21T05:57:50.824Z,-94.5
2023-05-21T05:58:54.123Z,-79.14
2023-05-21T05:59:57.418Z,-4.9
2023-05-21T06:01:01.026Z,-20.26
2023-05-21T06:02:04.325Z,-50.98
2023-05-21T06:03:07.617Z,-4.9
2023-05-21T06:04:10.912Z,-99.62
2023-05-21T06:05:14.200Z,-189.22
2023-05-21T06:06:17.483Z,-186.66
2023-05-21T06:07:19.804Z,-209.7
2023-05-21T06:08:23.097Z,-219.94
2023-05-21T06:09:26.377Z,-240.42
2023-05-21T06:10:29.679Z,-266.02
2023-05-21T06:11:32.981Z,-263.46
2023-05-21T06:12:36.252Z,-143.14
2023-05-21T06:13:39.566Z,-63.78
2023-05-21T06:14:42.831Z,115.43
2023-05-21T06:15:46.146Z,125.67
2023-05-21T06:16:49.433Z,61.67
2023-05-21T06:17:52.717Z,112.87
2023-05-21T06:18:56.004Z,166.63
2023-05-21T06:19:59.318Z,61.67
2023-05-21T06:21:01.613Z,125.67
2023-05-21T06:22:04.913Z,161.51
2023-05-21T06:23:08.208Z,94.95
2023-05-21T06:24:11.486Z,61.67
2023-05-21T06:25:14.784Z,33.51
2023-05-21T06:26:18.084Z,30.95
2023-05-21T06:27:21.360Z,2.79
2023-05-21T06:28:24.654Z,0
2023-05-21T06:29:27.959Z,69.35
2023-05-21T06:30:31.233Z,28.39
2023-05-21T06:31:34.543Z,0
2023-05-21T06:32:37.866Z,36.07
2023-05-21T06:33:41.124Z,-17.7
2023-05-21T06:34:43.439Z,36.07
2023-05-21T06:35:46.713Z,74.47
2023-05-21T06:36:50.023Z,79.59
2023-05-21T06:37:53.297Z,51.43
2023-05-21T06:38:56.602Z,36.07
2023-05-21T06:39:59.898Z,51.43
2023-05-21T06:41:03.182Z,36.07
2023-05-21T06:42:06.482Z,33.51
2023-05-21T06:43:09.793Z,20.71
2023-05-21T06:44:13.062Z,125.67
2023-05-21T06:45:16.350Z,15.59
2023-05-21T06:46:19.656Z,-15.14
2023-05-21T06:47:22.947Z,53.99
2023-05-21T06:48:25.243Z,100.07
2023-05-21T06:49:28.537Z,5.35
2023-05-21T06:50:31.823Z,64.23
2023-05-21T06:51:35.112Z,107.75
2023-05-21T06:52:38.420Z,28.39
2023-05-21T06:53:41.701Z,-120.1
2023-05-21T06:54:45.000Z,-107.3
2023-05-21T06:55:48.291Z,-132.9
2023-05-21T06:56:51.583Z,-81.7
2023-05-21T06:57:54.867Z,-163.62
2023-05-21T06:58:58.319Z,-89.38
2023-05-21T07:00:01.610Z,-132.9
2023-05-21T07:01:04.907Z,-10.02
2023-05-21T07:02:07.222Z,82.15
2023-05-21T07:03:10.503Z,194.79
2023-05-21T07:04:13.799Z,130.79
2023-05-21T07:05:17.077Z,110.31
2023-05-21T07:06:20.377Z,146.15
2023-05-21T07:07:23.667Z,197.35
2023-05-21T07:08:26.956Z,123.11
2023-05-21T07:09:30.259Z,51.43
2023-05-21T07:10:33.556Z,20.71
2023-05-21T07:11:36.833Z,25.83
2023-05-21T07:12:40.141Z,-10.02
2023-05-21T07:13:43.425Z,-66.34
2023-05-21T07:14:46.730Z,-132.9
2023-05-21T07:15:49.020Z,-45.86
2023-05-21T07:16:52.326Z,10.47
2023-05-21T07:17:55.610Z,-71.46
2023-05-21T07:18:58.906Z,-45.86
2023-05-21T07:20:02.195Z,-45.86
2023-05-21T07:21:05.487Z,-81.7
2023-05-21T07:23:12.048Z,-153.38
2023-05-21T07:24:15.368Z,-145.7
2023-05-21T07:25:18.633Z,-132.9
2023-05-21T07:26:21.932Z,-155.94
2023-05-21T07:27:25.230Z,-140.58
2023-05-21T07:28:28.511Z,-189.22
2023-05-21T07:29:30.823Z,-76.58
2023-05-21T07:30:34.130Z,-102.18
2023-05-21T07:31:37.415Z,-117.54
2023-05-21T07:32:40.716Z,-94.5
2023-05-21T07:33:44.009Z,-71.46
2023-05-21T07:34:47.302Z,-76.58
2023-05-21T07:35:50.577Z,-99.62
2023-05-21T07:36:53.881Z,-48.42
2023-05-21T07:37:57.165Z,-63.78
2023-05-21T07:39:00.456Z,-12.58
2023-05-21T07:40:03.756Z,-10.02
2023-05-21T07:41:07.045Z,-45.86
2023-05-21T07:42:10.346Z,-10.02
2023-05-21T07:43:12.659Z,-20.26
2023-05-21T07:44:15.988Z,25.83
2023-05-21T07:45:19.245Z,-56.1
2023-05-21T07:46:22.515Z,-112.42
2023-05-21T07:47:25.821Z,-71.46
2023-05-21T07:48:29.123Z,-68.9
2023-05-21T07:49:32.399Z,-17.7
2023-05-21T07:50:35.709Z,-68.9
2023-05-21T07:51:38.986Z,-33.06
2023-05-21T07:52:42.272Z,-7.46
2023-05-21T07:53:45.579Z,-7.46
2023-05-21T07:54:48.861Z,2.79
2023-05-21T07:55:52.166Z,-48.42
2023-05-21T07:56:54.461Z,-10.02
2023-05-21T07:57:57.756Z,-58.66
2023-05-21T07:59:01.048Z,-53.54
2023-05-21T08:00:04.338Z,-94.5
2023-05-21T08:01:07.620Z,-86.82
2023-05-21T08:02:10.919Z,-89.38
2023-05-21T08:03:14.225Z,-79.14
2023-05-21T08:04:17.498Z,-66.34
2023-05-21T08:05:20.804Z,-76.58
2023-05-21T08:06:24.101Z,-58.66
2023-05-21T08:07:27.401Z,-33.06
2023-05-21T08:08:30.673Z,-66.34
2023-05-21T08:09:33.992Z,-25.38
2023-05-21T08:10:36.280Z,-48.42
2023-05-21T08:11:39.571Z,-74.02
2023-05-21T08:12:42.849Z,-68.9
2023-05-21T08:13:46.151Z,-10.02
2023-05-21T08:14:49.462Z,-12.58
2023-05-21T08:15:52.721Z,5.35
2023-05-21T08:16:56.012Z,-40.74
2023-05-21T08:17:59.321Z,-63.78
2023-05-21T08:19:02.594Z,-81.7
2023-05-21T08:20:05.900Z,-68.9
2023-05-21T08:21:09.179Z,-56.1
2023-05-21T08:22:12.478Z,-94.5
2023-05-21T08:23:15.776Z,-97.06
2023-05-21T08:24:18.080Z,-86.82
2023-05-21T08:25:21.367Z,-114.98
2023-05-21T08:26:24.683Z,-86.82
2023-05-21T08:27:27.956Z,-102.18
2023-05-21T08:28:31.256Z,-112.42
2023-05-21T08:29:34.559Z,-153.38
2023-05-21T08:30:37.834Z,-117.54
2023-05-21T08:31:41.139Z,-89.38
2023-05-21T08:32:44.410Z,-84.26
2023-05-21T08:33:47.704Z,-153.38
2023-05-21T08:34:51.013Z,-138.02
2023-05-21T08:35:54.281Z,-114.98
2023-05-21T08:36:57.592Z,-148.26
2023-05-21T08:39:03.173Z,-178.98
2023-05-21T08:40:06.468Z,-214.82
2023-05-21T08:41:09.783Z,-163.62
2023-05-21T08:42:13.061Z,-173.86
2023-05-21T08:43:16.360Z,-125.22
2023-05-21T08:44:19.649Z,-135.46
2023-05-21T08:45:22.909Z,-112.42
2023-05-21T08:46:26.221Z,-127.78
2023-05-21T08:47:29.517Z,-81.7
2023-05-21T08:48:32.827Z,-99.62
2023-05-21T08:49:36.130Z,-66.34
2023-05-21T08:50:39.398Z,-86.82
2023-05-21T08:51:41.705Z,-66.34
2023-05-21T08:52:44.995Z,-53.54
2023-05-21T08:53:48.279Z,-45.86
2023-05-21T08:54:51.581Z,-53.54
2023-05-21T08:55:54.874Z,-53.54
2023-05-21T08:56:58.166Z,-127.78
2023-05-21T08:58:00.473Z,-135.46
2023-05-21T08:59:03.777Z,-132.9
2023-05-21T09:00:07.064Z,-140.58
2023-05-21T09:01:10.356Z,-153.38
2023-05-21T09:02:13.651Z,-173.86
2023-05-21T09:03:16.961Z,-135.46
2023-05-21T09:04:20.235Z,-181.54
2023-05-21T09:05:23.597Z,-153.38
2023-05-21T09:06:26.818Z,-204.58
2023-05-21T09:07:30.102Z,-178.98
2023-05-21T09:08:33.416Z,-176.42
2023-05-21T09:09:36.691Z,-202.02
2023-05-21T09:10:39.996Z,-143.14
2023-05-21T09:11:42.326Z,-138.02
2023-05-21T09:12:45.605Z,-125.22
2023-05-21T09:13:48.869Z,-125.22
2023-05-21T09:14:52.176Z,-150.82
2023-05-21T09:15:55.461Z,-196.9
2023-05-21T09:16:58.765Z,-181.54
2023-05-21T09:18:02.382Z,-158.5
2023-05-21T09:19:05.641Z,-204.58
2023-05-21T09:20:08.925Z,-173.86
2023-05-21T09:21:12.223Z,-189.22
2023-05-21T09:22:15.573Z,-178.98
2023-05-21T09:23:18.969Z,-140.58
2023-05-21T09:24:22.217Z,-94.5
2023-05-21T09:25:24.502Z,-107.3
2023-05-21T09:26:27.712Z,-79.14
2023-05-21T09:27:31.069Z,-68.9
2023-05-21T09:28:34.290Z,-84.26
2023-05-21T09:29:37.575Z,-71.46
2023-05-21T09:30:40.857Z,-81.7
2023-05-21T09:31:44.152Z,-68.9
2023-05-21T09:32:47.441Z,-86.82
2023-05-21T09:33:50.756Z,-81.7
2023-05-21T09:34:54.100Z,-104.74
2023-05-21T09:35:57.425Z,-99.62
2023-05-21T09:37:00.788Z,-81.7
2023-05-21T09:38:04.036Z,-84.26
2023-05-21T09:39:06.215Z,-132.9
2023-05-21T09:40:09.502Z,-109.86
2023-05-21T09:41:12.808Z,-91.94
2023-05-21T09:42:16.099Z,-74.02
2023-05-21T09:43:19.389Z,-81.7
2023-05-21T09:44:22.674Z,-66.34
2023-05-21T09:45:25.996Z,-71.46
2023-05-21T09:46:29.254Z,-74.02
2023-05-21T09:47:32.543Z,-35.62
2023-05-21T09:48:35.841Z,-97.06
2023-05-21T09:49:39.242Z,-84.26
2023-05-21T09:50:42.418Z,-94.5
2023-05-21T09:51:45.760Z,-43.3
2023-05-21T09:52:48.023Z,-74.02
2023-05-21T09:53:51.315Z,-84.26
2023-05-21T09:54:54.663Z,-10.02
2023-05-21T09:55:57.895Z,-17.7
2023-05-21T09:57:01.199Z,-81.7
2023-05-21T09:58:04.599Z,-99.62
2023-05-21T09:59:07.773Z,-91.94
2023-05-21T10:00:11.091Z,-104.74
2023-05-21T10:01:14.399Z,-86.82
2023-05-21T10:02:17.659Z,-76.58
2023-05-21T10:03:20.942Z,-91.94
2023-05-21T10:04:24.225Z,-102.18
2023-05-21T10:05:27.543Z,-68.9
2023-05-21T10:06:29.886Z,-89.38
2023-05-21T10:07:33.133Z,-86.82
2023-05-21T10:08:36.422Z,-71.46
2023-05-21T10:09:39.701Z,-81.7
2023-05-21T10:10:42.986Z,-74.02
2023-05-21T10:11:46.300Z,-66.34
2023-05-21T10:12:49.571Z,-66.34
2023-05-21T10:13:52.866Z,-71.46
2023-05-21T10:14:56.835Z,-102.18
2023-05-21T10:16:00.109Z,-99.62
2023-05-21T10:18:06.797Z,-120.1
2023-05-21T10:19:10.036Z,-125.22
2023-05-21T10:20:12.300Z,-130.34
2023-05-21T10:21:15.605Z,-255.78
2023-05-21T10:22:18.891Z,-260.9
2023-05-21T10:23:22.193Z,307.42
2023-05-21T10:24:25.483Z,281.82
2023-05-21T10:25:28.763Z,286.94
2023-05-21T10:26:32.078Z,284.38
2023-05-21T10:27:35.412Z,302.3
2023-05-21T10:28:38.673Z,286.94
2023-05-21T10:29:41.931Z,297.18
2023-05-21T10:30:45.240Z,-314.66
2023-05-21T10:31:48.702Z,-317.22
2023-05-21T10:32:51.798Z,279.26
2023-05-21T10:33:54.294Z,-155.94
2023-05-21T10:34:57.580Z,-97.06
2023-05-21T10:36:00.806Z,-43.3
2023-05-21T10:37:04.075Z,-199.46
2023-05-21T10:38:07.414Z,-209.7
2023-05-21T10:39:10.673Z,-222.5
2023-05-21T10:40:14.037Z,-176.42
2023-05-21T10:41:17.163Z,-202.02
2023-05-21T10:42:20.495Z,-184.1
2023-05-21T10:43:23.756Z,-191.78
2023-05-21T10:44:27.050Z,-217.38
2023-05-21T10:45:30.338Z,-327.46
2023-05-21T10:46:33.628Z,-278.82
2023-05-21T10:47:35.936Z,-276.26
2023-05-21T10:48:39.228Z,-273.7
2023-05-21T10:49:42.510Z,320.22
2023-05-21T10:50:45.818Z,-291.62
2023-05-21T10:51:49.111Z,-286.5
2023-05-21T10:52:52.413Z,-278.82
2023-05-21T10:53:55.690Z,-289.06
2023-05-21T10:54:58.976Z,-276.26
2023-05-21T10:56:02.279Z,-263.46
2023-05-21T10:57:05.546Z,-268.58
2023-05-21T10:58:08.851Z,-237.86
2023-05-21T10:59:12.143Z,-255.78
2023-05-21T11:00:15.443Z,-258.34
2023-05-21T11:01:17.765Z,-260.9
2023-05-21T11:02:21.023Z,-283.94
2023-05-21T11:03:24.358Z,-273.7
2023-05-21T11:04:27.628Z,-306.98
2023-05-21T11:05:30.917Z,322.78
2023-05-21T11:06:34.200Z,-306.98
2023-05-21T11:07:37.500Z,-322.34
2023-05-21T11:08:40.817Z,-255.78
2023-05-21T11:09:44.077Z,-230.18
2023-05-21T11:10:47.376Z,-181.54
2023-05-21T11:11:50.660Z,-158.5
2023-05-21T11:12:53.957Z,-158.5
2023-05-21T11:13:57.256Z,-178.98
2023-05-21T11:14:59.978Z,-181.54
2023-05-21T11:16:03.251Z,-155.94
2023-05-21T11:17:06.547Z,-135.46
2023-05-21T11:18:09.839Z,-214.82
2023-05-21T11:19:13.121Z,-214.82
2023-05-21T11:20:16.417Z,-199.46
2023-05-21T11:21:19.743Z,-199.46
2023-05-21T11:22:23.017Z,-235.3
2023-05-21T11:23:26.296Z,-255.78
2023-05-21T11:24:29.573Z,-214.82
2023-05-21T11:25:32.886Z,-219.94
2023-05-21T11:26:36.176Z,-209.7
2023-05-21T11:27:39.482Z,-237.86
2023-05-21T11:28:41.765Z,-237.86
2023-05-21T11:29:45.067Z,-204.58
2023-05-21T11:30:48.342Z,-245.54
2023-05-21T11:31:51.643Z,-232.74
2023-05-21T11:32:54.951Z,-219.94
2023-05-21T11:33:58.236Z,-235.3
2023-05-21T11:35:01.511Z,-225.06
2023-05-21T11:36:04.819Z,-214.82
2023-05-21T11:37:08.108Z,-199.46
2023-05-21T11:38:11.412Z,-209.7
2023-05-21T11:39:14.707Z,-214.82
2023-05-21T11:40:17.999Z,-225.06
2023-05-21T11:41:21.283Z,-253.22
2023-05-21T11:42:23.585Z,-306.98
2023-05-21T11:43:26.935Z,-276.26
2023-05-21T11:44:30.157Z,-230.18
2023-05-21T11:45:33.475Z,-225.06
2023-05-21T11:46:36.746Z,-217.38
2023-05-21T11:47:40.066Z,-194.34
2023-05-21T11:48:43.326Z,-171.3
2023-05-21T11:49:46.636Z,-184.1
2023-05-21T11:50:49.928Z,-122.66
2023-05-21T11:51:53.205Z,-181.54
2023-05-21T11:52:56.501Z,-130.34
2023-05-21T11:54:00.224Z,-260.9
2023-05-21T11:55:03.575Z,-232.74
2023-05-21T11:56:05.844Z,-312.1
2023-05-21T11:57:09.148Z,317.66
2023-05-21T11:58:12.424Z,-291.62
2023-05-21T11:59:15.715Z,-327.46
2023-05-21T12:00:19.008Z,-38.18
2023-05-21T12:01:22.305Z,-143.14
2023-05-21T12:02:25.682Z,-86.82
2023-05-21T12:03:28.899Z,-2.34
2023-05-21T12:04:32.180Z,-12.58
2023-05-21T12:05:35.471Z,-81.7
2023-05-21T12:06:38.776Z,-184.1
2023-05-21T12:07:42.063Z,-204.58
2023-05-21T12:09:48.644Z,-230.18
2023-05-21T12:10:50.942Z,-127.78
2023-05-21T12:11:54.239Z,-114.98
2023-05-21T12:12:57.532Z,-194.34
2023-05-21T12:14:00.827Z,-245.54
2023-05-21T12:15:04.158Z,-230.18
2023-05-21T12:16:07.398Z,-232.74
2023-05-21T12:17:10.712Z,-266.02
2023-05-21T12:18:13.982Z,-255.78
2023-05-21T12:19:17.308Z,-268.58
2023-05-21T12:20:20.574Z,-258.34
2023-05-21T12:21:23.864Z,-312.1
2023-05-21T12:22:27.185Z,320.22
2023-05-21T12:23:30.439Z,299.74
2023-05-21T12:24:32.751Z,302.3
2023-05-21T12:25:36.035Z,269.02
2023-05-21T12:26:39.339Z,302.3
2023-05-21T12:27:42.638Z,251.1
2023-05-21T12:28:45.928Z,261.34
2023-05-21T12:29:48.236Z,228.06
2023-05-21T12:30:51.556Z,220.38
2023-05-21T12:31:54.830Z,199.9
2023-05-21T12:32:58.116Z,212.7
2023-05-21T12:34:01.401Z,256.22
2023-05-21T12:35:04.736Z,297.18
2023-05-21T12:37:11.303Z,276.7
2023-05-21T12:38:14.570Z,294.62
2023-05-21T12:39:17.885Z,286.94
2023-05-21T12:40:21.136Z,230.62
2023-05-21T12:41:24.449Z,258.78
2023-05-21T12:42:27.740Z,297.18
2023-05-21T12:43:30.065Z,269.02
2023-05-21T12:44:33.363Z,251.1
2023-05-21T12:45:36.654Z,269.02
2023-05-21T12:46:39.937Z,269.02
2023-05-21T12:47:43.232Z,253.66
2023-05-21T12:48:46.514Z,240.86
2023-05-21T12:49:49.808Z,217.82
2023-05-21T12:50:53.100Z,199.9
2023-05-21T12:51:56.391Z,117.98
2023-05-21T12:52:59.686Z,125.66
2023-05-21T12:54:02.966Z,15.58
2023-05-21T12:55:06.267Z,-15.15
2023-05-21T12:56:09.541Z,13.02
2023-05-21T12:57:11.863Z,33.5
2023-05-21T12:58:15.152Z,36.06
2023-05-21T12:59:18.433Z,25.82
2023-05-21T13:00:21.746Z,23.26
2023-05-21T13:01:25.069Z,-2.35
2023-05-21T13:02:28.314Z,-40.75
2023-05-21T13:04:34.921Z,7.9
2023-05-21T13:05:38.188Z,28.38
2023-05-21T13:06:41.500Z,-43.31
2023-05-21T13:07:44.775Z,-63.79
2023-05-21T13:08:48.084Z,-140.59
2023-05-21T13:09:51.366Z,-71.47
2023-05-21T13:10:53.689Z,-15.15
2023-05-21T13:11:56.968Z,-10.03
2023-05-21T13:13:00.254Z,5.34
2023-05-21T13:14:03.851Z,-45.87
2023-05-21T13:15:07.115Z,-74.03
2023-05-21T13:16:10.394Z,-17.71
2023-05-21T13:17:13.706Z,38.62
2023-05-21T13:18:16.978Z,59.1